createdAt,value
2022-08-23T00:00:29.671Z,6.80
2022-08-23T00:03:15.494Z,5.75
2022-08-23T00:06:01.092Z,4.87
2022-08-23T00:08:48.585Z,5.95
2022-08-23T00:11:37.540Z,5.82
2022-08-23T00:14:29.250Z,7.53
2022-08-23T00:17:33.262Z,6.13
2022-08-23T00:20:20.401Z,5.63
2022-08-23T00:23:05.705Z,6.63
2022-08-23T00:25:51.114Z,6.78
2022-08-23T00:28:36.078Z,6.47
2022-08-23T00:31:21.661Z,6.07
2022-08-23T00:34:07.081Z,8.00
2022-08-23T00:36:52.528Z,6.88
2022-08-23T00:39:38.888Z,5.88
2022-08-23T00:42:51.860Z,6.03
2022-08-23T00:46:05.423Z,6.68
2022-08-23T00:48:51.715Z,6.23
2022-08-23T00:51:53.233Z,7.10
2022-08-23T00:54:41.246Z,7.93
2022-08-23T00:57:27.656Z,4.43
2022-08-23T01:00:13.427Z,5.72
2022-08-23T01:02:59.120Z,5.80
2022-08-23T01:05:50.337Z,5.70
2022-08-23T01:08:38.307Z,6.57
2022-08-23T01:11:38.476Z,8.65
2022-08-23T01:14:34.669Z,5.97
2022-08-23T01:17:26.983Z,5.83
2022-08-23T01:20:16.741Z,8.10
2022-08-23T01:23:39.414Z,6.88
2022-08-23T01:26:25.823Z,6.50
2022-08-23T01:29:11.468Z,9.52
2022-08-23T01:31:56.845Z,5.63
2022-08-23T01:34:45.797Z,8.02
2022-08-23T01:37:37.939Z,8.10
2022-08-23T01:40:23.273Z,7.40
2022-08-23T01:43:09.127Z,8.13
2022-08-23T01:45:55.650Z,7.27
2022-08-23T01:48:42.364Z,6.60
2022-08-23T01:51:27.249Z,5.93
2022-08-23T01:54:12.809Z,8.05
2022-08-23T01:56:58.911Z,6.68
2022-08-23T01:59:44.251Z,9.63
2022-08-23T02:02:29.427Z,5.68
2022-08-23T02:05:18.809Z,6.07
2022-08-23T02:08:25.770Z,6.18
2022-08-23T02:11:16.464Z,7.22
2022-08-23T02:14:09.617Z,6.83
2022-08-23T02:17:10.243Z,6.10
2022-08-23T02:19:55.865Z,8.60
2022-08-23T02:22:41.914Z,7.05
2022-08-23T02:25:27.349Z,6.10
2022-08-23T02:28:12.663Z,7.90
2022-08-23T02:30:57.904Z,7.63
2022-08-23T02:33:43.651Z,6.25
2022-08-23T02:36:30.002Z,5.30
2022-08-23T02:39:17.627Z,6.05
2022-08-23T02:42:03.097Z,6.43
2022-08-23T02:44:51.955Z,7.43
2022-08-23T02:47:37.888Z,7.47
2022-08-23T02:50:31.232Z,7.07
2022-08-23T02:53:17.267Z,6.25
2022-08-23T02:56:04.026Z,7.17
2022-08-23T02:58:54.541Z,7.78
2022-08-23T03:01:41.243Z,7.40
2022-08-23T03:04:38.296Z,6.05
2022-08-23T03:07:23.568Z,6.90
2022-08-23T03:10:10.327Z,6.77
2022-08-23T03:12:59.226Z,5.78
2022-08-23T03:15:45.143Z,7.22
2022-08-23T03:18:30.307Z,7.43
2022-08-23T03:21:20.413Z,6.57
2022-08-23T03:24:10.206Z,7.00
2022-08-23T03:26:57.091Z,6.72
2022-08-23T03:29:42.680Z,5.70
2022-08-23T03:32:28.095Z,7.30
2022-08-23T03:35:15.299Z,6.68
2022-08-23T03:38:00.900Z,5.27
2022-08-23T03:40:46.028Z,6.40
2022-08-23T03:43:31.305Z,5.80
2022-08-23T03:46:23.641Z,7.00
2022-08-23T03:49:12.965Z,7.00
2022-08-23T03:52:11.312Z,6.40
2022-08-23T03:54:56.785Z,6.78
2022-08-23T03:57:42.699Z,7.75
2022-08-23T04:00:28.478Z,6.32
2022-08-23T04:03:13.963Z,7.28
2022-08-23T04:06:16.113Z,6.83
2022-08-23T04:09:01.485Z,7.03
2022-08-23T04:11:46.717Z,8.30
2022-08-23T04:14:31.898Z,7.32
2022-08-23T04:17:18.405Z,7.90
2022-08-23T04:20:05.354Z,8.77
2022-08-23T04:22:55.191Z,7.35
2022-08-23T04:25:45.571Z,7.22
2022-08-23T04:28:31.243Z,9.20
2022-08-23T04:31:19.780Z,7.93
2022-08-23T04:34:08.348Z,5.93
2022-08-23T04:36:55.306Z,6.50
2022-08-23T04:39:59.515Z,7.72
2022-08-23T04:42:50.623Z,7.45
2022-08-23T04:45:39.101Z,8.88
2022-08-23T04:48:26.785Z,10.27
2022-08-23T04:51:12.827Z,7.45
2022-08-23T04:53:59.198Z,7.15
2022-08-23T04:56:51.671Z,7.05
2022-08-23T04:59:38.630Z,6.72
2022-08-23T05:02:23.919Z,8.17
2022-08-23T05:05:11.056Z,7.30
2022-08-23T05:08:01.486Z,7.18
2022-08-23T05:10:47.265Z,7.88
2022-08-23T05:13:35.624Z,7.40
2022-08-23T05:16:22.763Z,8.50
2022-08-23T05:19:15.671Z,8.35
2022-08-23T05:22:02.744Z,6.88
2022-08-23T05:25:09.913Z,7.57
2022-08-23T05:27:58.198Z,7.43
2022-08-23T05:30:55.159Z,7.50
2022-08-23T05:33:42.772Z,6.93
2022-08-23T05:36:28.658Z,6.95
2022-08-23T05:39:14.933Z,8.98
2022-08-23T05:42:12.480Z,7.30
2022-08-23T05:44:57.783Z,7.97
2022-08-23T05:47:43.854Z,8.18
2022-08-23T05:50:55.974Z,8.70
2022-08-23T05:53:43.111Z,6.60
2022-08-23T05:56:32.048Z,7.38
2022-08-23T05:59:19.338Z,8.27
2022-08-23T06:02:06.042Z,6.95
2022-08-23T06:04:55.519Z,7.88
2022-08-23T06:07:42.555Z,7.43
2022-08-23T06:10:27.879Z,7.95
2022-08-23T06:13:19.332Z,5.83
2022-08-23T06:16:15.118Z,7.95
2022-08-23T06:19:02.508Z,6.43
2022-08-23T06:22:23.373Z,8.35
2022-08-23T06:25:09.807Z,8.40
2022-08-23T06:28:04.877Z,8.47
2022-08-23T06:30:52.422Z,8.55
2022-08-23T06:33:47.742Z,7.32
2022-08-23T06:37:04.767Z,6.57
2022-08-23T06:40:13.648Z,7.78
2022-08-23T06:43:09.165Z,7.17
2022-08-23T06:46:18.022Z,7.60
2022-08-23T06:49:05.554Z,5.20
2022-08-23T06:51:53.746Z,7.30
2022-08-23T06:54:48.532Z,8.18
2022-08-23T06:58:09.261Z,6.27
2022-08-23T07:01:44.617Z,7.43
2022-08-23T07:04:53.996Z,6.47
2022-08-23T07:07:58.646Z,9.23
2022-08-23T07:10:44.000Z,5.55
2022-08-23T07:13:29.528Z,6.37
2022-08-23T07:16:18.141Z,7.70
2022-08-23T07:19:04.355Z,8.50
2022-08-23T07:21:49.616Z,6.13
2022-08-23T07:24:35.385Z,6.47
2022-08-23T07:27:21.425Z,5.83
2022-08-23T07:30:16.746Z,6.75
2022-08-23T07:33:03.200Z,5.63
2022-08-23T07:35:55.569Z,6.93
2022-08-23T07:38:41.252Z,6.10
2022-08-23T07:41:32.846Z,5.47
2022-08-23T07:44:22.462Z,5.97
2022-08-23T07:47:12.756Z,7.00
2022-08-23T07:49:57.857Z,4.90
2022-08-23T07:52:44.516Z,5.22
2022-08-23T07:55:29.881Z,4.80
2022-08-23T07:58:29.126Z,5.55
2022-08-23T08:01:30.176Z,6.18
2022-08-23T08:04:15.883Z,5.70
2022-08-23T08:07:20.965Z,5.93
2022-08-23T08:10:13.916Z,6.07
2022-08-23T08:12:59.099Z,4.88
2022-08-23T08:15:44.295Z,7.40
2022-08-23T08:18:32.469Z,5.85
2022-08-23T08:21:51.321Z,5.78
2022-08-23T08:25:06.410Z,5.00
2022-08-23T08:27:52.033Z,5.07
2022-08-23T08:30:37.124Z,5.80
2022-08-23T08:33:23.065Z,5.30
2022-08-23T08:36:39.447Z,5.30
2022-08-23T08:39:31.512Z,5.23
2022-08-23T08:42:25.349Z,5.57
2022-08-23T08:45:15.581Z,5.38
2022-08-23T08:48:14.136Z,6.72
2022-08-23T08:51:16.155Z,5.35
2022-08-23T08:54:06.127Z,4.83
2022-08-23T08:56:59.413Z,5.70
2022-08-23T09:00:08.849Z,4.63
2022-08-23T09:02:59.156Z,6.35
2022-08-23T09:06:09.909Z,5.72
2022-08-23T09:09:02.155Z,6.40
2022-08-23T09:12:06.066Z,5.78
2022-08-23T09:15:29.759Z,5.82
2022-08-23T09:18:16.647Z,5.47
2022-08-23T09:21:06.707Z,4.75
2022-08-23T09:24:00.166Z,5.47
2022-08-23T09:26:57.576Z,6.25
2022-08-23T09:29:54.460Z,5.75
2022-08-23T09:32:44.000Z,5.40
2022-08-23T09:35:31.791Z,5.45
2022-08-23T09:38:25.053Z,4.63
2022-08-23T09:41:20.409Z,4.60
2022-08-23T09:44:13.766Z,5.78
2022-08-23T09:47:08.355Z,5.25
2022-08-23T09:49:56.247Z,5.68
2022-08-23T09:52:41.579Z,5.00
2022-08-23T09:55:34.075Z,6.13
2022-08-23T09:58:38.381Z,5.00
2022-08-23T10:01:27.551Z,5.07
2022-08-23T10:04:35.490Z,5.80
2022-08-23T10:07:23.058Z,5.53
2022-08-23T10:10:23.821Z,4.88
2022-08-23T10:13:11.524Z,4.82
2022-08-23T10:16:01.286Z,7.10
2022-08-23T10:19:03.189Z,5.30
2022-08-23T10:22:08.608Z,5.53
2022-08-23T10:25:07.231Z,7.05
2022-08-23T10:28:19.935Z,5.15
2022-08-23T10:31:17.336Z,5.63
2022-08-23T10:34:23.097Z,6.85
2022-08-23T10:37:30.536Z,4.50
2022-08-23T10:40:34.913Z,5.43
2022-08-23T10:43:38.029Z,4.97
2022-08-23T10:46:24.056Z,5.10
2022-08-23T10:49:13.020Z,5.13
2022-08-23T10:51:59.230Z,5.17
2022-08-23T10:55:05.744Z,5.13
2022-08-23T10:57:53.816Z,4.55
2022-08-23T11:00:40.141Z,4.82
2022-08-23T11:03:31.747Z,4.78
2022-08-23T11:06:37.391Z,5.10
2022-08-23T11:09:26.228Z,4.60
2022-08-23T11:12:22.707Z,5.30
2022-08-23T11:15:12.387Z,5.25
2022-08-23T11:18:05.061Z,5.55
2022-08-23T11:20:55.784Z,6.03
2022-08-23T11:23:59.248Z,4.55
2022-08-23T11:27:05.963Z,4.90
2022-08-23T11:29:55.462Z,5.28
2022-08-23T11:32:50.557Z,6.13
2022-08-23T11:36:08.525Z,6.97
2022-08-23T11:38:55.628Z,6.57
2022-08-23T11:41:55.997Z,5.55
2022-08-23T11:44:48.315Z,5.38
2022-08-23T11:47:44.579Z,5.15
2022-08-23T11:50:38.967Z,5.67
2022-08-23T11:53:34.381Z,6.90
2022-08-23T11:56:36.512Z,5.25
2022-08-23T11:59:21.467Z,4.82
2022-08-23T12:02:40.638Z,5.50
2022-08-23T12:06:01.088Z,4.60
2022-08-23T12:09:01.759Z,5.50
2022-08-23T12:11:56.201Z,5.50
2022-08-23T12:14:44.145Z,5.07
2022-08-23T12:17:29.737Z,4.90
2022-08-23T12:20:28.821Z,6.43
2022-08-23T12:23:17.825Z,5.00
2022-08-23T12:26:13.649Z,5.63
2022-08-23T12:29:18.740Z,4.43
2022-08-23T12:32:21.598Z,5.07
2022-08-23T12:35:46.811Z,5.13
2022-08-23T12:38:56.483Z,6.85
2022-08-23T12:41:53.959Z,6.03
2022-08-23T12:44:39.086Z,4.75
2022-08-23T12:47:24.412Z,4.82
2022-08-23T12:50:34.577Z,4.57
2022-08-23T12:53:36.061Z,4.85
2022-08-23T12:56:32.123Z,5.82
2022-08-23T12:59:33.713Z,5.32
2022-08-23T13:02:25.856Z,3.78
2022-08-23T13:05:22.345Z,4.40
2022-08-23T13:08:11.643Z,4.45
2022-08-23T13:10:56.946Z,4.68
2022-08-23T13:13:44.105Z,5.68
2022-08-23T13:16:44.547Z,5.20
2022-08-23T13:19:32.085Z,4.77
2022-08-23T13:22:24.768Z,5.70
2022-08-23T13:25:32.140Z,6.22
2022-08-23T13:28:36.132Z,5.45
2022-08-23T13:31:21.507Z,6.20
2022-08-23T13:34:06.681Z,4.17
2022-08-23T13:36:51.771Z,4.05
2022-08-23T13:39:37.582Z,4.28
2022-08-23T13:42:52.714Z,4.50
2022-08-23T13:45:51.959Z,4.28
2022-08-23T13:48:46.437Z,6.23
2022-08-23T13:51:36.975Z,5.00
2022-08-23T13:54:22.779Z,4.50
2022-08-23T13:57:12.979Z,4.22
2022-08-23T13:59:59.018Z,3.88
2022-08-23T14:02:48.842Z,5.33
2022-08-23T14:05:34.519Z,5.18
2022-08-23T14:08:20.409Z,4.88
2022-08-23T14:11:05.439Z,4.05
2022-08-23T14:13:51.028Z,4.88
2022-08-23T14:16:40.902Z,3.80
2022-08-23T14:22:32.186Z,4.18
2022-08-23T14:25:17.273Z,4.10
2022-08-23T14:28:02.937Z,4.55
2022-08-23T14:30:48.082Z,4.50
2022-08-23T14:33:33.458Z,3.40
2022-08-23T14:36:18.919Z,3.80
2022-08-23T14:39:06.128Z,3.65
2022-08-23T14:41:52.418Z,4.88
2022-08-23T14:44:37.735Z,3.77
2022-08-23T14:47:22.695Z,4.18
2022-08-23T14:50:10.905Z,3.75
2022-08-23T14:52:55.955Z,4.55
2022-08-23T14:55:41.757Z,3.58
2022-08-23T14:58:27.182Z,3.80
2022-08-23T15:01:13.252Z,3.78
2022-08-23T15:04:01.388Z,4.65
2022-08-23T15:07:14.097Z,4.50
2022-08-23T15:09:55.833Z,3.55
2022-08-23T15:12:57.364Z,5.23
2022-08-23T15:15:46.612Z,3.40
2022-08-23T15:18:37.342Z,4.75
2022-08-23T15:21:23.078Z,3.83
2022-08-23T15:24:08.709Z,5.22
2022-08-23T15:26:59.513Z,3.70
2022-08-23T15:29:44.562Z,4.07
2022-08-23T15:32:29.508Z,3.83
2022-08-23T15:35:18.297Z,5.07
2022-08-23T15:38:04.006Z,3.60
2022-08-23T15:40:52.097Z,3.60
2022-08-23T15:43:39.192Z,5.20
2022-08-23T15:46:24.818Z,3.45
2022-08-23T15:49:13.901Z,3.90
2022-08-23T15:52:00.266Z,4.68
2022-08-23T15:54:46.363Z,4.17
2022-08-23T15:57:38.778Z,4.53
2022-08-23T16:00:26.148Z,4.32
2022-08-23T16:03:18.527Z,4.50
2022-08-23T16:06:06.825Z,3.88
2022-08-23T16:08:52.965Z,9.47
2022-08-23T16:11:37.989Z,13.45
2022-08-23T16:14:22.854Z,23.67
2022-08-23T16:17:08.608Z,28.35
2022-08-23T16:19:54.124Z,26.05
2022-08-23T16:22:40.047Z,33.80
2022-08-23T16:25:25.805Z,30.90
2022-08-23T16:28:10.745Z,27.67
2022-08-23T16:30:56.384Z,31.95
2022-08-23T16:33:42.049Z,30.65
2022-08-23T16:36:30.328Z,38.67
2022-08-23T16:39:16.556Z,31.42
2022-08-23T16:42:04.481Z,33.28
2022-08-23T16:44:49.598Z,37.92
2022-08-23T16:47:39.291Z,31.38
2022-08-23T16:50:25.139Z,32.53
2022-08-23T16:53:10.340Z,29.63
2022-08-23T16:55:56.052Z,32.05
2022-08-23T16:58:41.815Z,26.83
2022-08-23T17:01:27.997Z,29.17
2022-08-23T17:04:13.494Z,27.03
2022-08-23T17:06:59.573Z,30.50
2022-08-23T17:09:44.641Z,27.88
2022-08-23T17:12:31.427Z,27.40
2022-08-23T17:15:20.773Z,25.90
2022-08-23T17:18:06.824Z,24.83
2022-08-23T17:20:52.194Z,26.25
2022-08-23T17:23:40.683Z,26.48
2022-08-23T17:26:26.166Z,25.08
2022-08-23T17:29:12.247Z,25.08
2022-08-23T17:31:57.391Z,25.67
2022-08-23T17:34:42.603Z,26.55
2022-08-23T17:37:27.486Z,24.75
2022-08-23T17:40:16.678Z,24.42
2022-08-23T17:43:07.385Z,22.30
2022-08-23T17:45:52.875Z,23.37
2022-08-23T17:48:38.061Z,21.98
2022-08-23T17:51:23.263Z,25.17
2022-08-23T17:54:11.257Z,20.17
2022-08-23T17:56:56.478Z,19.58
2022-08-23T17:59:41.734Z,21.20
2022-08-23T18:02:27.275Z,18.27
2022-08-23T18:05:12.768Z,21.98
2022-08-23T18:07:58.238Z,20.60
2022-08-23T18:10:43.295Z,22.08
2022-08-23T18:13:29.290Z,18.00
2022-08-23T18:16:14.898Z,19.70
2022-08-23T18:19:01.260Z,18.15
2022-08-23T18:21:46.868Z,20.45
2022-08-23T18:27:52.646Z,17.77
2022-08-23T18:30:45.604Z,19.45
2022-08-23T18:33:46.382Z,20.40
2022-08-23T18:36:32.660Z,17.45
2022-08-23T18:39:17.666Z,17.50
2022-08-23T18:42:16.977Z,18.10
2022-08-23T18:45:03.416Z,17.60
2022-08-23T18:47:49.079Z,18.92
2022-08-23T18:50:34.310Z,21.38
2022-08-23T18:53:19.933Z,19.85
2022-08-23T18:56:05.296Z,18.43
2022-08-23T18:58:50.485Z,17.25
2022-08-23T19:01:39.035Z,16.45
2022-08-23T19:04:24.259Z,18.48
2022-08-23T19:07:10.025Z,18.60
2022-08-23T19:09:54.824Z,16.80
2022-08-23T19:12:40.277Z,15.63
2022-08-23T19:15:40.572Z,15.07
2022-08-23T19:18:25.539Z,17.52
2022-08-23T19:21:11.368Z,17.17
2022-08-23T19:23:57.429Z,16.40
2022-08-23T19:26:47.260Z,15.30
2022-08-23T19:29:33.066Z,17.45
2022-08-23T19:32:17.971Z,17.88
2022-08-23T19:35:05.911Z,15.88
2022-08-23T19:37:50.992Z,16.67
2022-08-23T19:40:37.008Z,17.90
2022-08-23T19:43:22.810Z,13.23
2022-08-23T19:46:15.788Z,13.82
2022-08-23T19:49:00.941Z,14.50
2022-08-23T19:51:46.644Z,14.33
2022-08-23T19:54:32.207Z,13.27
2022-08-23T19:57:18.375Z,13.65
2022-08-23T20:00:10.375Z,13.32
2022-08-23T20:02:55.459Z,15.27
2022-08-23T20:05:42.021Z,12.60
2022-08-23T20:08:27.965Z,13.55
2022-08-23T20:11:14.135Z,12.13
2022-08-23T20:14:00.354Z,12.13
2022-08-23T20:16:46.061Z,15.93
2022-08-23T20:19:31.680Z,13.70
2022-08-23T20:22:35.779Z,12.13
2022-08-23T20:25:20.943Z,10.77
2022-08-23T20:28:08.085Z,12.88
2022-08-23T20:30:53.173Z,11.63
2022-08-23T20:33:39.444Z,11.97
2022-08-23T20:36:28.351Z,11.90
2022-08-23T20:39:13.563Z,10.57
2022-08-23T20:41:58.789Z,11.27
2022-08-23T20:44:44.289Z,9.90
2022-08-23T20:47:29.712Z,11.17
2022-08-23T20:50:14.684Z,10.77
2022-08-23T20:52:59.818Z,9.82
2022-08-23T20:55:45.381Z,10.77
2022-08-23T20:58:30.933Z,10.38
2022-08-23T21:01:16.644Z,10.03
2022-08-23T21:04:02.291Z,11.57
2022-08-23T21:06:50.596Z,8.82
2022-08-23T21:09:36.659Z,9.05
2022-08-23T21:12:21.884Z,9.68
2022-08-23T21:15:10.931Z,7.77
2022-08-23T21:17:56.533Z,7.60
2022-08-23T21:20:41.826Z,7.40
2022-08-23T21:23:27.006Z,7.75
2022-08-23T21:26:12.310Z,6.30
2022-08-23T21:28:58.098Z,6.73
2022-08-23T21:31:43.217Z,8.70
2022-08-23T21:34:29.732Z,8.10
2022-08-23T21:37:15.100Z,7.55
2022-08-23T21:40:00.468Z,8.23
2022-08-23T21:42:47.067Z,10.27
2022-08-23T21:45:32.250Z,7.18
2022-08-23T21:48:19.738Z,7.25
2022-08-23T21:51:05.198Z,8.02
2022-08-23T21:53:50.789Z,8.80
2022-08-23T21:56:37.453Z,8.83
2022-08-23T21:59:22.483Z,7.28
2022-08-23T22:02:07.594Z,8.63
2022-08-23T22:04:53.351Z,7.15
2022-08-23T22:07:39.387Z,8.48
2022-08-23T22:10:25.415Z,7.07
2022-08-23T22:13:11.369Z,10.27
2022-08-23T22:15:56.838Z,8.13
2022-08-23T22:18:42.848Z,7.55
2022-08-23T22:21:28.106Z,8.18
2022-08-23T22:24:20.031Z,7.23
2022-08-23T22:27:07.585Z,7.30
2022-08-23T22:29:53.430Z,8.07
2022-08-23T22:32:38.638Z,6.32
2022-08-23T22:35:24.078Z,7.00
2022-08-23T22:38:14.195Z,6.97
2022-08-23T22:41:00.410Z,7.55
2022-08-23T22:43:45.733Z,8.55
2022-08-23T22:46:34.039Z,8.68
2022-08-23T22:49:19.397Z,7.88
2022-08-23T22:52:04.817Z,8.10
2022-08-23T22:54:50.297Z,7.32
2022-08-23T22:57:35.481Z,9.48
2022-08-23T23:00:23.450Z,6.10
2022-08-23T23:03:09.197Z,7.63
2022-08-23T23:05:55.730Z,8.13
2022-08-23T23:08:44.188Z,7.38
2022-08-23T23:11:29.441Z,6.53
2022-08-23T23:14:16.619Z,8.32
2022-08-23T23:17:01.561Z,7.03
2022-08-23T23:20:05.605Z,7.60
2022-08-23T23:22:51.772Z,6.88
2022-08-23T23:25:37.234Z,9.02
2022-08-23T23:28:22.736Z,7.28
2022-08-23T23:31:08.030Z,7.30
2022-08-23T23:33:53.431Z,7.20
2022-08-23T23:36:39.016Z,8.05
2022-08-23T23:39:24.511Z,7.13
2022-08-23T23:42:09.739Z,7.35
2022-08-23T23:44:55.192Z,7.97
2022-08-23T23:47:40.774Z,7.20
2022-08-23T23:50:27.046Z,7.05
2022-08-23T23:53:11.998Z,8.23
2022-08-23T23:56:01.228Z,7.95
2022-08-23T23:58:47.132Z,8.45
